sensor_id;sensor_type;location;lat;lon;timestamp;pressure;altitude;pressure_sealevel;temperature;humidity
20930;BME280;21895;47.072;15.132;2024-01-07T00:02:13;95358.00;;;5.86;85.39
20930;BME280;21895;47.072;15.132;2024-01-07T00:04:40;95357.00;;;5.87;85.24
20930;BME280;21895;47.072;15.132;2024-01-07T00:07:07;95360.00;;;5.87;85.15
20930;BME280;21895;47.072;15.132;2024-01-07T00:09:34;95359.00;;;5.80;85.64
20930;BME280;21895;47.072;15.132;2024-01-07T00:12:00;95352.00;;;5.87;84.75
20930;BME280;21895;47.072;15.132;2024-01-07T00:14:27;95351.00;;;5.77;84.89
20930;BME280;21895;47.072;15.132;2024-01-07T00:16:53;95343.00;;;5.72;85.37
20930;BME280;21895;47.072;15.132;2024-01-07T00:19:20;95338.00;;;5.62;85.66
20930;BME280;21895;47.072;15.132;2024-01-07T00:21:47;95332.00;;;5.58;86.23
20930;BME280;21895;47.072;15.132;2024-01-07T00:24:14;95336.00;;;5.65;86.96
20930;BME280;21895;47.072;15.132;2024-01-07T00:26:40;95325.00;;;5.79;86.49
20930;BME280;21895;47.072;15.132;2024-01-07T00:29:07;95331.00;;;5.87;86.39
20930;BME280;21895;47.072;15.132;2024-01-07T00:31:33;95337.00;;;5.91;85.64
20930;BME280;21895;47.072;15.132;2024-01-07T00:34:00;95333.00;;;5.92;84.78
20930;BME280;21895;47.072;15.132;2024-01-07T00:36:27;95335.00;;;5.77;84.99
20930;BME280;21895;47.072;15.132;2024-01-07T00:38:53;95337.00;;;5.67;85.73
20930;BME280;21895;47.072;15.132;2024-01-07T00:41:20;95332.00;;;5.64;86.40
20930;BME280;21895;47.072;15.132;2024-01-07T00:43:46;95326.00;;;5.71;86.24
20930;BME280;21895;47.072;15.132;2024-01-07T00:46:13;95328.00;;;5.71;86.51
20930;BME280;21895;47.072;15.132;2024-01-07T00:48:40;95327.00;;;5.75;86.48
20930;BME280;21895;47.072;15.132;2024-01-07T00:51:07;95323.00;;;5.81;86.52
20930;BME280;21895;47.072;15.132;2024-01-07T00:53:33;95328.00;;;5.89;85.97
20930;BME280;21895;47.072;15.132;2024-01-07T00:56:00;95327.00;;;5.85;85.40
20930;BME280;21895;47.072;15.132;2024-01-07T00:58:26;95328.00;;;5.79;86.20
20930;BME280;21895;47.072;15.132;2024-01-07T01:00:53;95332.00;;;5.85;86.55
20930;BME280;21895;47.072;15.132;2024-01-07T01:03:20;95332.00;;;5.91;85.35
20930;BME280;21895;47.072;15.132;2024-01-07T01:05:47;95335.00;;;5.83;84.90
20930;BME280;21895;47.072;15.132;2024-01-07T01:08:13;95335.00;;;5.73;84.67
20930;BME280;21895;47.072;15.132;2024-01-07T01:10:40;95325.00;;;5.72;84.24
20930;BME280;21895;47.072;15.132;2024-01-07T01:13:07;95326.00;;;5.62;84.53
20930;BME280;21895;47.072;15.132;2024-01-07T01:15:33;95328.00;;;5.60;85.20
20930;BME280;21895;47.072;15.132;2024-01-07T01:18:00;95330.00;;;5.63;85.51
20930;BME280;21895;47.072;15.132;2024-01-07T01:20:27;95315.00;;;5.62;85.35
20930;BME280;21895;47.072;15.132;2024-01-07T01:22:53;95317.00;;;5.59;84.80
20930;BME280;21895;47.072;15.132;2024-01-07T01:25:20;95319.00;;;5.48;85.13
20930;BME280;21895;47.072;15.132;2024-01-07T01:27:47;95318.00;;;5.49;85.63
20930;BME280;21895;47.072;15.132;2024-01-07T01:30:13;95316.00;;;5.49;85.71
20930;BME280;21895;47.072;15.132;2024-01-07T01:32:41;95321.00;;;5.48;85.81
20930;BME280;21895;47.072;15.132;2024-01-07T01:35:09;95317.00;;;5.48;85.91
20930;BME280;21895;47.072;15.132;2024-01-07T01:37:36;95314.00;;;5.47;86.44
20930;BME280;21895;47.072;15.132;2024-01-07T01:40:04;95318.00;;;5.51;86.66
20930;BME280;21895;47.072;15.132;2024-01-07T01:42:31;95315.00;;;5.50;86.77
20930;BME280;21895;47.072;15.132;2024-01-07T01:44:58;95318.00;;;5.54;86.59
20930;BME280;21895;47.072;15.132;2024-01-07T01:47:29;95310.00;;;5.62;86.22
20930;BME280;21895;47.072;15.132;2024-01-07T01:49:57;95309.00;;;5.56;86.46
20930;BME280;21895;47.072;15.132;2024-01-07T01:52:24;95315.00;;;5.57;86.45
20930;BME280;21895;47.072;15.132;2024-01-07T01:54:52;95311.00;;;5.61;86.35
20930;BME280;21895;47.072;15.132;2024-01-07T01:57:22;95305.00;;;5.66;86.53
20930;BME280;21895;47.072;15.132;2024-01-07T01:59:51;95309.00;;;5.67;86.58
20930;BME280;21895;47.072;15.132;2024-01-07T02:02:18;95304.00;;;5.68;86.14
20930;BME280;21895;47.072;15.132;2024-01-07T02:04:44;95303.00;;;5.68;85.79
20930;BME280;21895;47.072;15.132;2024-01-07T02:07:11;95310.00;;;5.67;85.36
20930;BME280;21895;47.072;15.132;2024-01-07T02:09:38;95300.00;;;5.60;85.40
20930;BME280;21895;47.072;15.132;2024-01-07T02:12:06;95301.00;;;5.48;86.09
20930;BME280;21895;47.072;15.132;2024-01-07T02:14:38;95302.00;;;5.57;86.66
20930;BME280;21895;47.072;15.132;2024-01-07T02:17:05;95297.00;;;5.62;86.69
20930;BME280;21895;47.072;15.132;2024-01-07T02:19:32;95302.00;;;5.58;86.18
20930;BME280;21895;47.072;15.132;2024-01-07T02:21:59;95300.00;;;5.37;86.32
20930;BME280;21895;47.072;15.132;2024-01-07T02:24:25;95303.00;;;5.48;86.15
20930;BME280;21895;47.072;15.132;2024-01-07T02:26:52;95298.00;;;5.46;85.13
20930;BME280;21895;47.072;15.132;2024-01-07T02:29:19;95299.00;;;5.37;85.39
20930;BME280;21895;47.072;15.132;2024-01-07T02:31:45;95300.00;;;5.39;85.55
20930;BME280;21895;47.072;15.132;2024-01-07T02:34:12;95294.00;;;5.44;85.91
20930;BME280;21895;47.072;15.132;2024-01-07T02:36:39;95299.00;;;5.37;85.83
20930;BME280;21895;47.072;15.132;2024-01-07T02:39:05;95296.00;;;5.38;86.33
20930;BME280;21895;47.072;15.132;2024-01-07T02:41:32;95295.00;;;5.35;86.74
20930;BME280;21895;47.072;15.132;2024-01-07T02:43:58;95287.00;;;5.36;86.72
20930;BME280;21895;47.072;15.132;2024-01-07T02:46:25;95288.00;;;5.50;86.50
20930;BME280;21895;47.072;15.132;2024-01-07T02:48:52;95285.00;;;5.52;86.06
20930;BME280;21895;47.072;15.132;2024-01-07T02:51:18;95289.00;;;5.51;85.90
20930;BME280;21895;47.072;15.132;2024-01-07T02:53:45;95291.00;;;5.61;85.40
20930;BME280;21895;47.072;15.132;2024-01-07T02:56:12;95285.00;;;5.53;85.63
20930;BME280;21895;47.072;15.132;2024-01-07T02:58:38;95293.00;;;5.58;85.37
20930;BME280;21895;47.072;15.132;2024-01-07T03:01:09;95290.00;;;5.55;85.58
20930;BME280;21895;47.072;15.132;2024-01-07T03:03:38;95294.00;;;5.58;86.07
20930;BME280;21895;47.072;15.132;2024-01-07T03:06:05;95292.00;;;5.64;85.52
20930;BME280;21895;47.072;15.132;2024-01-07T03:08:32;95289.00;;;5.62;85.78
20930;BME280;21895;47.072;15.132;2024-01-07T03:11:04;95290.00;;;5.65;85.46
20930;BME280;21895;47.072;15.132;2024-01-07T03:13:30;95289.00;;;5.71;84.90
20930;BME280;21895;47.072;15.132;2024-01-07T03:15:57;95290.00;;;5.73;84.89
20930;BME280;21895;47.072;15.132;2024-01-07T03:18:24;95291.00;;;5.75;84.69
20930;BME280;21895;47.072;15.132;2024-01-07T03:20:51;95282.00;;;5.65;84.98
20930;BME280;21895;47.072;15.132;2024-01-07T03:23:17;95284.00;;;5.48;85.92
20930;BME280;21895;47.072;15.132;2024-01-07T03:25:45;95287.00;;;5.49;86.79
20930;BME280;21895;47.072;15.132;2024-01-07T03:28:11;95290.00;;;5.66;86.39
20930;BME280;21895;47.072;15.132;2024-01-07T03:30:38;95292.00;;;5.78;85.10
20930;BME280;21895;47.072;15.132;2024-01-07T03:33:05;95293.00;;;5.70;84.46
20930;BME280;21895;47.072;15.132;2024-01-07T03:35:31;95295.00;;;5.60;84.25
20930;BME280;21895;47.072;15.132;2024-01-07T03:37:58;95293.00;;;5.60;84.19
20930;BME280;21895;47.072;15.132;2024-01-07T03:40:24;95292.00;;;5.56;84.66
20930;BME280;21895;47.072;15.132;2024-01-07T03:42:51;95302.00;;;5.59;84.34
20930;BME280;21895;47.072;15.132;2024-01-07T03:45:18;95305.00;;;5.52;85.17
20930;BME280;21895;47.072;15.132;2024-01-07T03:47:44;95309.00;;;5.56;85.90
20930;BME280;21895;47.072;15.132;2024-01-07T03:50:11;95302.00;;;5.64;86.07
20930;BME280;21895;47.072;15.132;2024-01-07T03:52:37;95303.00;;;5.66;86.16
20930;BME280;21895;47.072;15.132;2024-01-07T03:55:05;95310.00;;;5.64;85.40
20930;BME280;21895;47.072;15.132;2024-01-07T03:57:32;95312.00;;;5.65;85.14
20930;BME280;21895;47.072;15.132;2024-01-07T03:59:59;95316.00;;;5.64;85.06
20930;BME280;21895;47.072;15.132;2024-01-07T04:02:26;95318.00;;;5.62;85.02
20930;BME280;21895;47.072;15.132;2024-01-07T04:04:52;95319.00;;;5.63;84.80
20930;BME280;21895;47.072;15.132;2024-01-07T04:07:19;95316.00;;;5.58;84.95
20930;BME280;21895;47.072;15.132;2024-01-07T04:09:46;95319.00;;;5.63;84.81
20930;BME280;21895;47.072;15.132;2024-01-07T04:12:12;95318.00;;;5.61;84.71
20930;BME280;21895;47.072;15.132;2024-01-07T04:14:39;95329.00;;;5.64;85.00
20930;BME280;21895;47.072;15.132;2024-01-07T04:17:06;95326.00;;;5.62;84.89
20930;BME280;21895;47.072;15.132;2024-01-07T04:19:37;95329.00;;;5.58;85.54
20930;BME280;21895;47.072;15.132;2024-01-07T04:22:04;95335.00;;;5.63;85.56
20930;BME280;21895;47.072;15.132;2024-01-07T04:24:31;95330.00;;;5.63;86.07
20930;BME280;21895;47.072;15.132;2024-01-07T04:26:58;95330.00;;;5.60;86.34
20930;BME280;21895;47.072;15.132;2024-01-07T04:29:24;95343.00;;;5.63;86.20
20930;BME280;21895;47.072;15.132;2024-01-07T04:31:51;95334.00;;;5.63;86.39
20930;BME280;21895;47.072;15.132;2024-01-07T04:34:17;95336.00;;;5.60;86.47
20930;BME280;21895;47.072;15.132;2024-01-07T04:36:44;95351.00;;;5.53;86.81
20930;BME280;21895;47.072;15.132;2024-01-07T04:39:11;95334.00;;;5.58;87.05
20930;BME280;21895;47.072;15.132;2024-01-07T04:41:38;95346.00;;;5.63;86.75
20930;BME280;21895;47.072;15.132;2024-01-07T04:44:04;95346.00;;;5.60;86.81
20930;BME280;21895;47.072;15.132;2024-01-07T04:46:34;95346.00;;;5.74;86.27
20930;BME280;21895;47.072;15.132;2024-01-07T04:49:02;95352.00;;;5.80;85.52
20930;BME280;21895;47.072;15.132;2024-01-07T04:51:28;95349.00;;;5.79;85.32
20930;BME280;21895;47.072;15.132;2024-01-07T04:53:55;95347.00;;;5.73;85.69
20930;BME280;21895;47.072;15.132;2024-01-07T04:56:22;95352.00;;;5.65;86.14
20930;BME280;21895;47.072;15.132;2024-01-07T04:58:48;95362.00;;;5.77;86.52
20930;BME280;21895;47.072;15.132;2024-01-07T05:01:15;95351.00;;;5.70;86.94
20930;BME280;21895;47.072;15.132;2024-01-07T05:03:42;95354.00;;;5.74;87.12
20930;BME280;21895;47.072;15.132;2024-01-07T05:06:09;95359.00;;;5.80;87.01
20930;BME280;21895;47.072;15.132;2024-01-07T05:08:37;95363.00;;;5.71;87.39
20930;BME280;21895;47.072;15.132;2024-01-07T05:11:04;95358.00;;;5.79;87.42
20930;BME280;21895;47.072;15.132;2024-01-07T05:13:31;95364.00;;;5.85;87.01
20930;BME280;21895;47.072;15.132;2024-01-07T05:15:57;95372.00;;;5.80;87.27
20930;BME280;21895;47.072;15.132;2024-01-07T05:18:24;95370.00;;;5.79;87.75
20930;BME280;21895;47.072;15.132;2024-01-07T05:20:52;95373.00;;;5.76;87.82
20930;BME280;21895;47.072;15.132;2024-01-07T05:23:19;95371.00;;;5.78;87.86
20930;BME280;21895;47.072;15.132;2024-01-07T05:25:46;95372.00;;;5.91;87.46
20930;BME280;21895;47.072;15.132;2024-01-07T05:28:13;95380.00;;;5.98;86.45
20930;BME280;21895;47.072;15.132;2024-01-07T05:30:41;95370.00;;;5.87;86.12
20930;BME280;21895;47.072;15.132;2024-01-07T05:33:07;95374.00;;;5.90;86.12
20930;BME280;21895;47.072;15.132;2024-01-07T05:35:35;95374.00;;;5.82;86.37
20930;BME280;21895;47.072;15.132;2024-01-07T05:38:02;95378.00;;;5.83;86.33
20930;BME280;21895;47.072;15.132;2024-01-07T05:40:28;95380.00;;;5.77;86.70
20930;BME280;21895;47.072;15.132;2024-01-07T05:42:55;95381.00;;;5.89;86.27
20930;BME280;21895;47.072;15.132;2024-01-07T05:45:21;95379.00;;;5.81;85.65
20930;BME280;21895;47.072;15.132;2024-01-07T05:47:48;95374.00;;;5.69;85.47
20930;BME280;21895;47.072;15.132;2024-01-07T05:50:15;95385.00;;;5.58;85.65
20930;BME280;21895;47.072;15.132;2024-01-07T05:52:45;95379.00;;;5.67;85.38
20930;BME280;21895;47.072;15.132;2024-01-07T05:55:11;95386.00;;;5.75;85.20
20930;BME280;21895;47.072;15.132;2024-01-07T05:57:38;95388.00;;;5.80;85.24
20930;BME280;21895;47.072;15.132;2024-01-07T06:00:06;95394.00;;;5.65;86.02
20930;BME280;21895;47.072;15.132;2024-01-07T06:02:35;95396.00;;;5.72;85.93
20930;BME280;21895;47.072;15.132;2024-01-07T06:05:03;95390.00;;;5.79;85.63
20930;BME280;21895;47.072;15.132;2024-01-07T06:07:29;95396.00;;;5.62;86.27
20930;BME280;21895;47.072;15.132;2024-01-07T06:09:56;95397.00;;;5.62;86.89
20930;BME280;21895;47.072;15.132;2024-01-07T06:12:23;95397.00;;;5.69;86.06
20930;BME280;21895;47.072;15.132;2024-01-07T06:14:49;95393.00;;;5.65;86.14
20930;BME280;21895;47.072;15.132;2024-01-07T06:17:16;95399.00;;;5.58;86.63
20930;BME280;21895;47.072;15.132;2024-01-07T06:19:42;95399.00;;;5.56;86.82
20930;BME280;21895;47.072;15.132;2024-01-07T06:22:09;95395.00;;;5.59;86.97
20930;BME280;21895;47.072;15.132;2024-01-07T06:24:36;95395.00;;;5.54;87.30
20930;BME280;21895;47.072;15.132;2024-01-07T06:27:03;95401.00;;;5.54;87.43
20930;BME280;21895;47.072;15.132;2024-01-07T06:29:30;95400.00;;;5.54;87.72
20930;BME280;21895;47.072;15.132;2024-01-07T06:31:56;95402.00;;;5.62;87.83
20930;BME280;21895;47.072;15.132;2024-01-07T06:34:23;95409.00;;;5.63;87.65
20930;BME280;21895;47.072;15.132;2024-01-07T06:36:50;95412.00;;;5.72;87.88
20930;BME280;21895;47.072;15.132;2024-01-07T06:39:16;95407.00;;;5.82;87.13
20930;BME280;21895;47.072;15.132;2024-01-07T06:41:43;95413.00;;;5.89;86.47
20930;BME280;21895;47.072;15.132;2024-01-07T06:44:10;95413.00;;;5.95;85.75
20930;BME280;21895;47.072;15.132;2024-01-07T06:46:36;95419.00;;;5.86;85.48
20930;BME280;21895;47.072;15.132;2024-01-07T06:49:03;95412.00;;;5.82;85.36
20930;BME280;21895;47.072;15.132;2024-01-07T06:51:30;95421.00;;;5.71;85.65
20930;BME280;21895;47.072;15.132;2024-01-07T06:53:56;95419.00;;;5.69;85.74
20930;BME280;21895;47.072;15.132;2024-01-07T06:56:23;95417.00;;;5.66;86.24
20930;BME280;21895;47.072;15.132;2024-01-07T06:58:50;95423.00;;;5.68;86.88
20930;BME280;21895;47.072;15.132;2024-01-07T07:01:21;95423.00;;;5.70;86.94
20930;BME280;21895;47.072;15.132;2024-01-07T07:03:52;95423.00;;;5.74;87.32
20930;BME280;21895;47.072;15.132;2024-01-07T07:06:18;95424.00;;;5.76;87.27
20930;BME280;21895;47.072;15.132;2024-01-07T07:08:46;95423.00;;;5.78;87.45
20930;BME280;21895;47.072;15.132;2024-01-07T07:11:12;95426.00;;;5.87;87.28
20930;BME280;21895;47.072;15.132;2024-01-07T07:13:39;95426.00;;;5.99;86.66
20930;BME280;21895;47.072;15.132;2024-01-07T07:16:06;95430.00;;;6.00;86.66
20930;BME280;21895;47.072;15.132;2024-01-07T07:18:33;95433.00;;;6.05;85.91
20930;BME280;21895;47.072;15.132;2024-01-07T07:21:01;95431.00;;;6.04;85.24
20930;BME280;21895;47.072;15.132;2024-01-07T07:23:27;95435.00;;;5.96;85.12
20930;BME280;21895;47.072;15.132;2024-01-07T07:25:54;95444.00;;;5.95;85.06
20930;BME280;21895;47.072;15.132;2024-01-07T07:28:20;95438.00;;;5.88;85.35
20930;BME280;21895;47.072;15.132;2024-01-07T07:30:47;95442.00;;;5.84;85.49
20930;BME280;21895;47.072;15.132;2024-01-07T07:33:18;95444.00;;;5.80;86.03
20930;BME280;21895;47.072;15.132;2024-01-07T07:35:45;95440.00;;;5.81;86.08
20930;BME280;21895;47.072;15.132;2024-01-07T07:38:12;95441.00;;;5.70;86.29
20930;BME280;21895;47.072;15.132;2024-01-07T07:40:39;95447.00;;;5.87;85.96
20930;BME280;21895;47.072;15.132;2024-01-07T07:43:05;95445.00;;;5.86;86.15
20930;BME280;21895;47.072;15.132;2024-01-07T07:45:32;95443.00;;;5.96;85.92
20930;BME280;21895;47.072;15.132;2024-01-07T07:47:58;95446.00;;;5.96;85.87
20930;BME280;21895;47.072;15.132;2024-01-07T07:50:26;95446.00;;;6.02;85.69
20930;BME280;21895;47.072;15.132;2024-01-07T07:52:52;95450.00;;;6.02;85.53
20930;BME280;21895;47.072;15.132;2024-01-07T07:55:20;95453.00;;;6.01;85.75
20930;BME280;21895;47.072;15.132;2024-01-07T07:57:46;95460.00;;;6.02;85.59
20930;BME280;21895;47.072;15.132;2024-01-07T08:00:14;95452.00;;;6.17;85.29
20930;BME280;21895;47.072;15.132;2024-01-07T08:02:41;95459.00;;;6.21;85.30
20930;BME280;21895;47.072;15.132;2024-01-07T08:05:08;95468.00;;;6.17;85.24
20930;BME280;21895;47.072;15.132;2024-01-07T08:07:35;95467.00;;;6.25;85.08
20930;BME280;21895;47.072;15.132;2024-01-07T08:10:01;95476.00;;;6.26;85.08
20930;BME280;21895;47.072;15.132;2024-01-07T08:12:29;95474.00;;;6.21;85.46
20930;BME280;21895;47.072;15.132;2024-01-07T08:14:55;95476.00;;;6.34;85.34
20930;BME280;21895;47.072;15.132;2024-01-07T08:17:22;95473.00;;;6.40;84.94
20930;BME280;21895;47.072;15.132;2024-01-07T08:19:48;95471.00;;;6.43;84.94
20930;BME280;21895;47.072;15.132;2024-01-07T08:22:15;95480.00;;;6.65;84.13
20930;BME280;21895;47.072;15.132;2024-01-07T08:24:42;95475.00;;;6.75;83.68
20930;BME280;21895;47.072;15.132;2024-01-07T08:27:09;95475.00;;;6.82;83.44
20930;BME280;21895;47.072;15.132;2024-01-07T08:29:35;95477.00;;;6.85;83.47
20930;BME280;21895;47.072;15.132;2024-01-07T08:32:02;95485.00;;;6.93;82.83
20930;BME280;21895;47.072;15.132;2024-01-07T08:34:29;95481.00;;;6.91;82.13
20930;BME280;21895;47.072;15.132;2024-01-07T08:36:56;95475.00;;;7.00;81.83
20930;BME280;21895;47.072;15.132;2024-01-07T08:39:23;95477.00;;;7.01;81.39
20930;BME280;21895;47.072;15.132;2024-01-07T08:41:50;95475.00;;;7.06;81.43
20930;BME280;21895;47.072;15.132;2024-01-07T08:44:17;95485.00;;;7.02;81.25
20930;BME280;21895;47.072;15.132;2024-01-07T08:46:44;95485.00;;;6.94;81.59
20930;BME280;21895;47.072;15.132;2024-01-07T08:49:12;95487.00;;;6.93;81.61
20930;BME280;21895;47.072;15.132;2024-01-07T08:51:40;95490.00;;;6.98;81.68
20930;BME280;21895;47.072;15.132;2024-01-07T08:54:06;95494.00;;;7.03;81.24
20930;BME280;21895;47.072;15.132;2024-01-07T08:56:33;95496.00;;;7.14;80.71
20930;BME280;21895;47.072;15.132;2024-01-07T08:58:59;95501.00;;;7.12;80.32
20930;BME280;21895;47.072;15.132;2024-01-07T09:01:26;95499.00;;;7.06;80.24
20930;BME280;21895;47.072;15.132;2024-01-07T09:03:53;95505.00;;;6.99;80.90
20930;BME280;21895;47.072;15.132;2024-01-07T09:06:20;95502.00;;;6.91;80.82
20930;BME280;21895;47.072;15.132;2024-01-07T09:08:46;95501.00;;;7.07;80.67
20930;BME280;21895;47.072;15.132;2024-01-07T09:11:13;95507.00;;;7.19;79.88
20930;BME280;21895;47.072;15.132;2024-01-07T09:13:39;95512.00;;;7.19;79.72
20930;BME280;21895;47.072;15.132;2024-01-07T09:16:10;95514.00;;;7.23;79.72
20930;BME280;21895;47.072;15.132;2024-01-07T09:18:38;95512.00;;;7.17;79.75
20930;BME280;21895;47.072;15.132;2024-01-07T09:21:04;95512.00;;;7.22;79.93
20930;BME280;21895;47.072;15.132;2024-01-07T09:23:32;95509.00;;;6.98;79.41
20930;BME280;21895;47.072;15.132;2024-01-07T09:26:02;95503.00;;;7.07;80.12
20930;BME280;21895;47.072;15.132;2024-01-07T09:28:29;95500.00;;;7.17;80.17
20930;BME280;21895;47.072;15.132;2024-01-07T09:30:56;95509.00;;;7.27;79.62
20930;BME280;21895;47.072;15.132;2024-01-07T09:33:22;95510.00;;;7.24;79.67
20930;BME280;21895;47.072;15.132;2024-01-07T09:35:52;95501.00;;;7.31;79.02
20930;BME280;21895;47.072;15.132;2024-01-07T09:38:28;95504.00;;;7.41;78.29
20930;BME280;21895;47.072;15.132;2024-01-07T09:40:54;95506.00;;;7.44;77.59
20930;BME280;21895;47.072;15.132;2024-01-07T09:43:21;95504.00;;;7.47;78.01
20930;BME280;21895;47.072;15.132;2024-01-07T09:45:50;95499.00;;;7.51;78.01
20930;BME280;21895;47.072;15.132;2024-01-07T09:48:18;95500.00;;;7.59;78.01
20930;BME280;21895;47.072;15.132;2024-01-07T09:50:45;95505.00;;;7.60;77.77
20930;BME280;21895;47.072;15.132;2024-01-07T09:53:16;95501.00;;;7.71;77.78
20930;BME280;21895;47.072;15.132;2024-01-07T09:57:05;95506.00;;;7.80;76.75
20930;BME280;21895;47.072;15.132;2024-01-07T09:59:36;95493.00;;;7.88;76.44
20930;BME280;21895;47.072;15.132;2024-01-07T10:02:04;95501.00;;;7.91;76.68
20930;BME280;21895;47.072;15.132;2024-01-07T10:04:31;95503.00;;;7.91;76.71
20930;BME280;21895;47.072;15.132;2024-01-07T10:06:58;95497.00;;;8.03;76.13
20930;BME280;21895;47.072;15.132;2024-01-07T10:09:29;95490.00;;;8.03;76.12
20930;BME280;21895;47.072;15.132;2024-01-07T10:11:56;95495.00;;;8.02;76.45
20930;BME280;21895;47.072;15.132;2024-01-07T10:14:23;95488.00;;;7.98;76.76
20930;BME280;21895;47.072;15.132;2024-01-07T10:16:51;95497.00;;;7.95;76.86
20930;BME280;21895;47.072;15.132;2024-01-07T10:19:24;95506.00;;;8.01;76.56
20930;BME280;21895;47.072;15.132;2024-01-07T10:22:03;95496.00;;;8.06;76.20
20930;BME280;21895;47.072;15.132;2024-01-07T10:24:40;95500.00;;;8.07;75.54
20930;BME280;21895;47.072;15.132;2024-01-07T10:27:08;95497.00;;;8.15;74.87
20930;BME280;21895;47.072;15.132;2024-01-07T10:29:35;95499.00;;;8.15;74.90
20930;BME280;21895;47.072;15.132;2024-01-07T10:32:03;95493.00;;;8.06;75.29
20930;BME280;21895;47.072;15.132;2024-01-07T10:34:32;95493.00;;;8.11;74.95
20930;BME280;21895;47.072;15.132;2024-01-07T10:37:02;95488.00;;;8.12;75.15
20930;BME280;21895;47.072;15.132;2024-01-07T10:39:29;95492.00;;;8.07;74.81
20930;BME280;21895;47.072;15.132;2024-01-07T10:41:57;95487.00;;;8.07;74.56
20930;BME280;21895;47.072;15.132;2024-01-07T10:44:30;95493.00;;;8.14;75.41
20930;BME280;21895;47.072;15.132;2024-01-07T10:46:58;95495.00;;;8.07;75.87
20930;BME280;21895;47.072;15.132;2024-01-07T10:49:27;95493.00;;;8.22;74.49
20930;BME280;21895;47.072;15.132;2024-01-07T10:52:06;95496.00;;;8.23;74.29
20930;BME280;21895;47.072;15.132;2024-01-07T10:54:35;95488.00;;;8.18;74.95
20930;BME280;21895;47.072;15.132;2024-01-07T10:57:34;95491.00;;;8.22;74.89
20930;BME280;21895;47.072;15.132;2024-01-07T11:00:06;95489.00;;;8.22;74.94
20930;BME280;21895;47.072;15.132;2024-01-07T11:03:16;95485.00;;;8.33;74.01
20930;BME280;21895;47.072;15.132;2024-01-07T11:06:11;95492.00;;;8.31;74.16
20930;BME280;21895;47.072;15.132;2024-01-07T11:09:14;95484.00;;;8.29;73.86
20930;BME280;21895;47.072;15.132;2024-01-07T11:11:43;95489.00;;;8.34;73.81
20930;BME280;21895;47.072;15.132;2024-01-07T11:14:41;95481.00;;;8.30;73.71
20930;BME280;21895;47.072;15.132;2024-01-07T11:17:13;95486.00;;;8.44;73.37
20930;BME280;21895;47.072;15.132;2024-01-07T11:19:50;95486.00;;;8.44;72.49
20930;BME280;21895;47.072;15.132;2024-01-07T11:22:27;95485.00;;;8.40;72.75
20930;BME280;21895;47.072;15.132;2024-01-07T11:24:55;95482.00;;;8.46;72.66
20930;BME280;21895;47.072;15.132;2024-01-07T11:27:24;95474.00;;;8.62;72.22
20930;BME280;21895;47.072;15.132;2024-01-07T11:30:01;95478.00;;;8.52;72.08
20930;BME280;21895;47.072;15.132;2024-01-07T11:32:33;95469.00;;;8.48;72.46
20930;BME280;21895;47.072;15.132;2024-01-07T11:35:00;95474.00;;;8.56;72.40
20930;BME280;21895;47.072;15.132;2024-01-07T11:37:27;95471.00;;;8.59;71.72
20930;BME280;21895;47.072;15.132;2024-01-07T11:39:58;95467.00;;;8.72;70.46
20930;BME280;21895;47.072;15.132;2024-01-07T11:42:24;95477.00;;;8.68;70.75
20930;BME280;21895;47.072;15.132;2024-01-07T11:44:55;95467.00;;;8.74;71.34
20930;BME280;21895;47.072;15.132;2024-01-07T11:47:24;95473.00;;;8.86;71.93
20930;BME280;21895;47.072;15.132;2024-01-07T11:49:54;95476.00;;;8.80;72.67
20930;BME280;21895;47.072;15.132;2024-01-07T11:52:21;95479.00;;;8.86;72.61
20930;BME280;21895;47.072;15.132;2024-01-07T11:54:48;95476.00;;;8.81;72.64
20930;BME280;21895;47.072;15.132;2024-01-07T11:57:17;95468.00;;;8.84;72.67
20930;BME280;21895;47.072;15.132;2024-01-07T11:59:44;95474.00;;;9.04;72.23
20930;BME280;21895;47.072;15.132;2024-01-07T12:02:11;95474.00;;;9.07;72.96
20930;BME280;21895;47.072;15.132;2024-01-07T12:04:38;95476.00;;;8.86;74.00
20930;BME280;21895;47.072;15.132;2024-01-07T12:07:05;95477.00;;;8.89;73.89
20930;BME280;21895;47.072;15.132;2024-01-07T12:09:32;95481.00;;;8.86;73.63
20930;BME280;21895;47.072;15.132;2024-01-07T12:11:59;95486.00;;;8.98;72.70
20930;BME280;21895;47.072;15.132;2024-01-07T12:14:27;95476.00;;;8.88;72.71
20930;BME280;21895;47.072;15.132;2024-01-07T12:16:55;95481.00;;;8.78;72.71
20930;BME280;21895;47.072;15.132;2024-01-07T12:19:22;95478.00;;;8.76;72.99
20930;BME280;21895;47.072;15.132;2024-01-07T12:22:06;95487.00;;;8.80;73.00
20930;BME280;21895;47.072;15.132;2024-01-07T12:24:33;95479.00;;;8.85;72.15
20930;BME280;21895;47.072;15.132;2024-01-07T12:27:07;95478.00;;;8.79;72.65
20930;BME280;21895;47.072;15.132;2024-01-07T12:29:33;95484.00;;;8.86;72.15
20930;BME280;21895;47.072;15.132;2024-01-07T12:32:00;95476.00;;;8.85;71.65
20930;BME280;21895;47.072;15.132;2024-01-07T12:34:29;95484.00;;;8.86;71.33
20930;BME280;21895;47.072;15.132;2024-01-07T12:36:56;95488.00;;;8.77;70.64
20930;BME280;21895;47.072;15.132;2024-01-07T12:39:22;95485.00;;;8.84;70.16
20930;BME280;21895;47.072;15.132;2024-01-07T12:41:54;95484.00;;;9.00;69.52
20930;BME280;21895;47.072;15.132;2024-01-07T12:44:20;95486.00;;;9.05;68.65
20930;BME280;21895;47.072;15.132;2024-01-07T12:46:47;95487.00;;;8.97;68.59
20930;BME280;21895;47.072;15.132;2024-01-07T12:49:14;95491.00;;;8.89;68.32
20930;BME280;21895;47.072;15.132;2024-01-07T12:51:41;95493.00;;;8.85;68.92
20930;BME280;21895;47.072;15.132;2024-01-07T12:54:08;95489.00;;;8.78;69.70
20930;BME280;21895;47.072;15.132;2024-01-07T12:56:35;95494.00;;;8.79;69.07
20930;BME280;21895;47.072;15.132;2024-01-07T12:59:02;95489.00;;;8.72;69.59
20930;BME280;21895;47.072;15.132;2024-01-07T13:01:29;95491.00;;;8.64;70.66
20930;BME280;21895;47.072;15.132;2024-01-07T13:03:57;95489.00;;;8.76;70.55
20930;BME280;21895;47.072;15.132;2024-01-07T13:06:24;95491.00;;;8.78;69.85